Disclaimer

Please do not use the information listed here in-flight or in-navigation, as they are not provided to us by the airports but are provided by volunteers, so they might be outdated.

Search


Regions


Airport information page

Radio informations:
GYUMRI TWR - 120.6 MHz
Automatic Terminal Information Service (ATIS) - 128.7 MHz
GYUMRI APP - 127.7 MHz

Airport informations:
Latitude: 40° 45' 01.33" N
Longitude: 043° 51' 33.63" E
Elevation: 5000 feet - 1524 meters
Operating hours: Remarks
Operating agency: Civil government, landing fees and diplomatic clearance may be required
Timezone: UTC+4(+5DT)
Fuel: N/A

Runway information:
02/20 - 10564 x 147 feet< - >3220 x 45 meters

Recent METARs:
UDSG 122030Z VRB01KT 9000 FEW049 01/M02 Q1024 R02/CLRD70 NOSIG
UDSG 122100Z 21001KT 8000 FEW049 01/M02 Q1024 R02/CLRD70 NOSIG
UDSG 122130Z 17001KT 9000 FEW049 01/M02 Q1024 R02/CLRD70 NOSIG

Airport on the map: